createdAt,value
2023-04-29T00:00:18.683Z,14.80
2023-04-29T00:02:47.160Z,14.84
2023-04-29T00:05:18.862Z,14.85
2023-04-29T00:07:48.658Z,14.86
2023-04-29T00:10:17.090Z,14.87
2023-04-29T00:12:45.436Z,14.88
2023-04-29T00:15:20.969Z,14.88
2023-04-29T00:17:49.314Z,14.89
2023-04-29T00:20:18.157Z,14.90
2023-04-29T00:22:46.449Z,14.91
2023-04-29T00:25:19.101Z,14.92
2023-04-29T00:27:47.417Z,14.93
2023-04-29T00:30:15.781Z,14.93
2023-04-29T00:32:44.739Z,14.95
2023-04-29T00:35:13.586Z,14.95
2023-04-29T00:37:41.899Z,14.96
2023-04-29T00:40:15.396Z,14.96
2023-04-29T00:42:45.243Z,14.97
2023-04-29T00:45:13.761Z,14.98
2023-04-29T00:47:42.201Z,14.98
2023-04-29T00:50:11.505Z,14.98
2023-04-29T00:52:40.265Z,14.99
2023-04-29T00:55:10.033Z,15.00
2023-04-29T00:57:39.123Z,15.00
2023-04-29T01:00:11.140Z,15.00
2023-04-29T01:02:39.715Z,15.00
2023-04-29T01:05:08.845Z,15.01
2023-04-29T01:07:46.803Z,15.01
2023-04-29T01:10:21.257Z,14.98
2023-04-29T01:13:00.611Z,15.00
2023-04-29T01:15:41.547Z,15.00
2023-04-29T01:18:15.781Z,15.00
2023-04-29T01:20:45.348Z,14.99
2023-04-29T01:23:13.663Z,14.99
2023-04-29T01:25:43.937Z,14.98
2023-04-29T01:28:23.260Z,14.97
2023-04-29T01:30:58.756Z,14.97
2023-04-29T01:33:45.274Z,14.95
2023-04-29T01:36:26.649Z,14.95
2023-04-29T01:39:09.786Z,14.93
2023-04-29T01:41:45.908Z,14.93
2023-04-29T01:44:20.790Z,14.91
2023-04-29T01:46:53.999Z,14.91
2023-04-29T01:49:22.921Z,14.89
2023-04-29T01:51:53.837Z,14.86
2023-04-29T01:54:22.882Z,14.84
2023-04-29T01:56:52.999Z,14.82
2023-04-29T01:59:22.208Z,14.78
2023-04-29T02:01:51.360Z,14.77
2023-04-29T02:04:19.704Z,14.75
2023-04-29T02:06:51.074Z,14.73
2023-04-29T02:09:19.460Z,14.70
2023-04-29T02:11:47.789Z,14.67
2023-04-29T02:14:17.493Z,14.64
2023-04-29T02:16:46.513Z,14.61
2023-04-29T02:19:15.289Z,14.57
2023-04-29T02:21:43.531Z,14.54
2023-04-29T02:24:11.906Z,14.50
2023-04-29T02:26:40.297Z,14.47
2023-04-29T02:29:08.578Z,14.41
2023-04-29T02:31:38.263Z,14.40
2023-04-29T02:34:06.634Z,14.37
2023-04-29T02:36:35.028Z,14.35
2023-04-29T02:39:03.388Z,14.30
2023-04-29T02:41:33.501Z,14.28
2023-04-29T02:44:01.844Z,14.24
2023-04-29T02:46:30.125Z,14.21
2023-04-29T02:48:59.841Z,14.17
2023-04-29T02:51:28.122Z,14.14
2023-04-29T02:53:56.744Z,14.12
2023-04-29T02:56:25.119Z,14.09
2023-04-29T02:58:53.490Z,14.05
2023-04-29T03:01:21.936Z,14.03
2023-04-29T03:03:50.559Z,13.99
2023-04-29T03:06:20.453Z,13.94
2023-04-29T03:08:48.710Z,13.90
2023-04-29T03:11:17.069Z,13.90
2023-04-29T03:13:48.371Z,13.88
2023-04-29T03:16:18.919Z,13.86
2023-04-29T03:18:47.258Z,13.85
2023-04-29T03:21:22.032Z,13.83
2023-04-29T03:23:50.402Z,13.82
2023-04-29T03:26:18.873Z,13.83
2023-04-29T03:28:47.823Z,13.84
2023-04-29T03:31:16.717Z,13.83
2023-04-29T03:33:45.121Z,13.83
2023-04-29T03:36:13.450Z,13.83
2023-04-29T03:38:43.371Z,13.81
2023-04-29T03:41:11.793Z,13.84
2023-04-29T03:43:40.161Z,13.85
2023-04-29T03:46:08.693Z,13.85
2023-04-29T03:48:40.077Z,13.88
2023-04-29T03:51:11.245Z,13.89
2023-04-29T03:53:39.941Z,13.91
2023-04-29T03:56:09.804Z,13.93
2023-04-29T03:58:38.194Z,13.95
2023-04-29T04:01:06.915Z,13.97
2023-04-29T04:03:35.905Z,13.97
2023-04-29T04:06:04.485Z,13.99
2023-04-29T04:08:32.824Z,13.99
2023-04-29T04:11:03.284Z,14.00
2023-04-29T04:13:33.163Z,13.99
2023-04-29T04:16:04.143Z,14.02
2023-04-29T04:18:32.544Z,14.03
2023-04-29T04:21:07.716Z,14.05
2023-04-29T04:23:36.345Z,14.06
2023-04-29T04:26:04.604Z,14.09
2023-04-29T04:28:34.535Z,14.07
2023-04-29T04:31:02.954Z,14.13
2023-04-29T04:33:31.325Z,14.14
2023-04-29T04:35:59.687Z,14.13
2023-04-29T04:38:28.170Z,14.16
2023-04-29T04:40:56.451Z,14.19
2023-04-29T04:43:27.013Z,14.19
2023-04-29T04:45:57.387Z,14.22
2023-04-29T04:48:25.846Z,14.22
2023-04-29T04:50:54.219Z,14.24
2023-04-29T04:53:25.496Z,14.26
2023-04-29T04:55:56.788Z,14.28
2023-04-29T04:58:26.667Z,14.29
2023-04-29T05:00:56.400Z,14.27
2023-04-29T05:03:24.959Z,14.31
2023-04-29T05:05:58.987Z,14.32
2023-04-29T05:08:27.962Z,14.33
2023-04-29T05:10:59.627Z,14.38
2023-04-29T05:13:28.336Z,14.40
2023-04-29T05:15:58.051Z,14.44
2023-04-29T05:18:26.370Z,14.47
2023-04-29T05:20:54.718Z,14.50
2023-04-29T05:23:23.252Z,14.54
2023-04-29T05:25:51.585Z,14.56
2023-04-29T05:28:19.927Z,14.59
2023-04-29T05:30:48.526Z,14.63
2023-04-29T05:33:18.342Z,14.67
2023-04-29T05:35:46.624Z,14.70
2023-04-29T05:38:14.971Z,14.75
2023-04-29T05:40:43.261Z,14.80
2023-04-29T05:43:11.614Z,14.84
2023-04-29T05:45:39.986Z,14.89
2023-04-29T05:48:13.978Z,14.93
2023-04-29T05:50:44.310Z,14.97
2023-04-29T05:53:12.732Z,15.02
2023-04-29T05:55:44.703Z,15.05
2023-04-29T05:58:13.364Z,15.10
2023-04-29T06:00:43.796Z,15.15
2023-04-29T06:03:12.626Z,15.18
2023-04-29T06:05:43.449Z,15.24
2023-04-29T06:08:13.475Z,15.26
2023-04-29T06:10:44.872Z,15.32
2023-04-29T06:13:13.248Z,15.36
2023-04-29T06:15:44.439Z,15.38
2023-04-29T06:18:12.793Z,15.44
2023-04-29T06:20:49.963Z,15.45
2023-04-29T06:23:19.666Z,15.47
2023-04-29T06:25:48.881Z,15.50
2023-04-29T06:28:18.160Z,15.55
2023-04-29T06:30:47.012Z,15.57
2023-04-29T06:33:15.550Z,15.59
2023-04-29T06:35:43.828Z,15.63
2023-04-29T06:38:12.156Z,15.68
2023-04-29T06:40:41.826Z,15.69
2023-04-29T06:43:10.137Z,15.76
2023-04-29T06:45:38.536Z,15.77
2023-04-29T06:48:07.550Z,15.79
2023-04-29T06:50:39.388Z,15.84
2023-04-29T06:53:12.807Z,15.88
2023-04-29T06:55:42.573Z,15.93
2023-04-29T06:58:10.877Z,15.97
2023-04-29T07:00:44.028Z,16.00
2023-04-29T07:03:12.506Z,16.06
2023-04-29T07:05:42.239Z,16.13
2023-04-29T07:08:11.201Z,16.17
2023-04-29T07:10:46.513Z,16.24
2023-04-29T07:13:17.147Z,16.27
2023-04-29T07:15:45.531Z,16.32
2023-04-29T07:18:13.833Z,16.37
2023-04-29T07:20:42.179Z,16.43
2023-04-29T07:23:10.707Z,16.48
2023-04-29T07:25:39.191Z,16.50
2023-04-29T07:28:09.437Z,16.55
2023-04-29T07:30:40.738Z,16.62
2023-04-29T07:33:09.551Z,16.65
2023-04-29T07:35:37.902Z,16.70
2023-04-29T07:38:08.727Z,16.77
2023-04-29T07:40:39.368Z,16.83
2023-04-29T07:43:09.423Z,16.90
2023-04-29T07:45:37.748Z,16.97
2023-04-29T07:48:09.673Z,17.08
2023-04-29T07:50:38.371Z,17.22
2023-04-29T07:53:07.535Z,17.34
2023-04-29T07:55:36.048Z,17.56
2023-04-29T07:58:04.444Z,17.71
2023-04-29T08:00:34.188Z,17.82
2023-04-29T08:03:02.642Z,17.92
2023-04-29T08:05:31.991Z,18.00
2023-04-29T08:08:00.619Z,18.10
2023-04-29T08:10:29.228Z,18.13
2023-04-29T08:12:57.862Z,18.17
2023-04-29T08:15:30.988Z,18.24
2023-04-29T08:18:03.323Z,18.32
2023-04-29T08:20:31.727Z,18.36
2023-04-29T08:23:00.790Z,18.38
2023-04-29T08:25:31.092Z,18.46
2023-04-29T08:27:59.457Z,18.51
2023-04-29T08:30:28.474Z,18.57
2023-04-29T08:32:56.823Z,18.65
2023-04-29T08:35:26.733Z,18.75
2023-04-29T08:37:55.307Z,18.89
2023-04-29T08:40:24.133Z,19.07
2023-04-29T08:42:52.924Z,19.29
2023-04-29T08:45:24.432Z,19.46
2023-04-29T08:47:53.901Z,19.68
2023-04-29T08:50:22.459Z,19.81
2023-04-29T08:52:53.085Z,19.99
2023-04-29T08:55:21.900Z,20.19
2023-04-29T08:57:51.954Z,20.33
2023-04-29T09:00:21.093Z,20.47
2023-04-29T09:02:52.860Z,20.66
2023-04-29T09:05:22.372Z,20.80
2023-04-29T09:07:54.274Z,21.01
2023-04-29T09:10:22.978Z,21.12
2023-04-29T09:12:51.567Z,21.23
2023-04-29T09:15:27.316Z,21.34
2023-04-29T09:17:58.725Z,21.45
2023-04-29T09:20:31.586Z,21.58
2023-04-29T09:23:04.148Z,21.70
2023-04-29T09:25:32.668Z,21.86
2023-04-29T09:28:17.841Z,22.01
2023-04-29T09:30:50.726Z,22.13
2023-04-29T09:33:19.176Z,22.29
2023-04-29T09:35:50.597Z,22.46
2023-04-29T09:38:21.119Z,22.58
2023-04-29T09:43:26.307Z,22.84
2023-04-29T09:45:54.993Z,22.94
2023-04-29T09:48:23.521Z,23.11
2023-04-29T09:51:03.260Z,23.20
2023-04-29T09:53:37.959Z,23.34
2023-04-29T09:56:07.372Z,23.47
2023-04-29T09:58:39.028Z,23.59
2023-04-29T10:01:08.561Z,23.73
2023-04-29T10:03:39.389Z,23.85
2023-04-29T10:06:09.186Z,23.91
2023-04-29T10:08:41.505Z,23.99
2023-04-29T10:11:12.228Z,24.10
2023-04-29T10:13:44.797Z,24.19
2023-04-29T10:16:26.664Z,24.28
2023-04-29T10:18:57.567Z,24.32
2023-04-29T10:21:31.256Z,24.30
2023-04-29T10:24:03.433Z,24.28
2023-04-29T10:26:33.019Z,24.28
2023-04-29T10:29:02.455Z,24.25
2023-04-29T10:31:31.295Z,24.18
2023-04-29T10:34:01.670Z,24.12
2023-04-29T10:36:31.675Z,24.09
2023-04-29T10:39:06.030Z,24.03
2023-04-29T10:41:41.036Z,24.02
2023-04-29T10:44:09.438Z,23.96
2023-04-29T10:46:38.365Z,23.90
2023-04-29T10:49:08.242Z,23.84
2023-04-29T10:51:42.065Z,23.75
2023-04-29T10:54:15.183Z,23.71
2023-04-29T10:56:46.506Z,23.68
2023-04-29T10:59:16.571Z,23.58
2023-04-29T11:01:51.120Z,23.46
2023-04-29T11:04:22.730Z,23.35
2023-04-29T11:06:55.473Z,23.25
2023-04-29T11:09:29.375Z,23.14
2023-04-29T11:12:05.425Z,23.01
2023-04-29T11:14:38.038Z,22.91
2023-04-29T11:17:11.065Z,22.80
2023-04-29T11:19:45.130Z,22.70
2023-04-29T11:22:27.131Z,22.53
2023-04-29T11:25:00.515Z,22.42
2023-04-29T11:27:33.303Z,22.33
2023-04-29T11:30:05.082Z,22.26
2023-04-29T11:32:35.422Z,22.20
2023-04-29T11:35:19.809Z,22.13
2023-04-29T11:37:48.839Z,22.09
2023-04-29T11:40:18.714Z,22.07
2023-04-29T11:42:49.182Z,22.06
2023-04-29T11:45:24.907Z,22.06
2023-04-29T11:47:54.876Z,22.09
2023-04-29T11:50:24.016Z,22.12
2023-04-29T11:52:52.539Z,22.19
2023-04-29T11:55:22.512Z,22.26
2023-04-29T11:57:52.510Z,22.32
2023-04-29T12:00:23.896Z,22.38
2023-04-29T12:02:52.428Z,22.45
2023-04-29T12:05:21.513Z,22.55
2023-04-29T12:07:52.296Z,22.64
2023-04-29T12:10:22.680Z,22.75
2023-04-29T12:12:51.472Z,22.79
2023-04-29T12:15:23.424Z,22.80
2023-04-29T12:17:52.085Z,22.80
2023-04-29T12:20:20.806Z,22.81
2023-04-29T12:22:49.340Z,22.73
2023-04-29T12:25:29.536Z,22.66
2023-04-29T12:28:01.334Z,22.62
2023-04-29T12:30:29.790Z,22.55
2023-04-29T12:32:58.176Z,22.43
2023-04-29T12:35:27.038Z,22.38
2023-04-29T12:37:55.517Z,22.31
2023-04-29T12:40:24.851Z,22.30
2023-04-29T12:42:55.208Z,22.27
2023-04-29T12:45:32.133Z,22.22
2023-04-29T12:48:01.843Z,22.23
2023-04-29T12:50:34.359Z,22.28
2023-04-29T12:53:05.159Z,22.27
2023-04-29T12:55:35.514Z,22.30
2023-04-29T12:58:09.371Z,22.34
2023-04-29T13:00:38.531Z,22.41
2023-04-29T13:03:07.333Z,22.39
2023-04-29T13:05:44.744Z,22.41
2023-04-29T13:08:13.070Z,22.43
2023-04-29T13:10:41.675Z,22.43
2023-04-29T13:13:11.503Z,22.39
2023-04-29T13:15:42.901Z,22.39
2023-04-29T13:18:11.555Z,22.37
2023-04-29T13:20:42.067Z,22.38
2023-04-29T13:23:12.088Z,22.40
2023-04-29T13:25:42.183Z,22.36
2023-04-29T13:28:12.278Z,22.43
2023-04-29T13:33:12.221Z,22.43
2023-04-29T13:35:42.040Z,22.36
2023-04-29T13:38:10.761Z,22.26
2023-04-29T13:40:45.250Z,22.25
2023-04-29T13:43:26.354Z,22.25
2023-04-29T13:46:04.332Z,22.19
2023-04-29T14:02:08.081Z,22.01
2023-04-29T14:04:07.410Z,21.98
2023-04-29T14:06:36.385Z,22.00
2023-04-29T14:09:04.876Z,21.93
2023-04-29T14:11:36.725Z,21.98
2023-04-29T14:14:07.209Z,21.97
2023-04-29T14:16:35.530Z,21.96
2023-04-29T14:19:04.259Z,21.88
2023-04-29T14:21:33.390Z,21.85
2023-04-29T14:24:03.357Z,21.78
2023-04-29T14:26:32.050Z,21.73
2023-04-29T14:29:01.230Z,21.67
2023-04-29T14:31:32.616Z,21.61
2023-04-29T14:34:01.257Z,21.58
2023-04-29T14:36:29.621Z,21.55
2023-04-29T14:38:57.946Z,21.51
2023-04-29T14:41:26.449Z,21.50
2023-04-29T14:43:54.953Z,21.49
2023-04-29T14:46:23.530Z,21.48
2023-04-29T14:48:53.240Z,21.48
2023-04-29T14:51:21.619Z,21.49
2023-04-29T14:53:49.967Z,21.51
2023-04-29T14:56:18.538Z,21.53
2023-04-29T14:58:46.939Z,21.58
2023-04-29T15:01:15.371Z,21.61
2023-04-29T15:03:45.048Z,21.65
2023-04-29T15:06:15.390Z,21.68
2023-04-29T15:08:43.794Z,21.71
2023-04-29T15:11:12.379Z,21.75
2023-04-29T15:13:40.848Z,21.75
2023-04-29T15:16:10.068Z,21.78
2023-04-29T15:18:38.532Z,21.80
2023-04-29T15:21:07.781Z,21.78
2023-04-29T15:23:37.588Z,21.76
2023-04-29T15:26:07.173Z,21.73
2023-04-29T15:28:35.728Z,21.77
2023-04-29T15:31:05.603Z,21.76
2023-04-29T15:33:34.458Z,21.81
2023-04-29T15:36:03.124Z,21.83
2023-04-29T15:38:31.724Z,21.87
2023-04-29T15:41:02.921Z,21.92
2023-04-29T15:43:32.773Z,21.93
2023-04-29T15:46:01.403Z,21.93
2023-04-29T15:48:29.829Z,21.95
2023-04-29T15:50:58.155Z,21.93
2023-04-29T15:53:26.608Z,21.87
2023-04-29T15:55:55.741Z,21.83
2023-04-29T15:58:25.573Z,21.80
2023-04-29T16:00:54.073Z,21.71
2023-04-29T16:03:22.652Z,21.69
2023-04-29T16:05:51.490Z,21.65
2023-04-29T16:08:19.909Z,21.61
2023-04-29T16:10:49.635Z,21.58
2023-04-29T16:13:18.412Z,21.53
2023-04-29T16:15:48.176Z,21.49
2023-04-29T16:18:17.612Z,21.43
2023-04-29T16:20:46.143Z,21.36
2023-04-29T16:23:14.591Z,21.28
2023-04-29T16:25:43.071Z,21.25
2023-04-29T16:28:11.521Z,21.21
2023-04-29T16:30:39.889Z,21.13
2023-04-29T16:33:09.694Z,21.06
2023-04-29T16:35:38.261Z,21.02
2023-04-29T16:38:06.826Z,21.00
2023-04-29T16:40:35.417Z,20.96
2023-04-29T16:43:03.834Z,20.88
2023-04-29T16:45:32.297Z,20.82
2023-04-29T16:48:02.930Z,20.79
2023-04-29T16:50:36.017Z,20.76
2023-04-29T16:53:04.886Z,20.72
2023-04-29T16:55:33.598Z,20.72
2023-04-29T16:58:01.950Z,20.66
2023-04-29T17:00:30.332Z,20.65
2023-04-29T17:02:59.029Z,20.63
2023-04-29T17:05:28.086Z,20.59
2023-04-29T17:07:57.827Z,20.49
2023-04-29T17:10:26.356Z,20.43
2023-04-29T17:12:54.744Z,20.40
2023-04-29T17:15:23.250Z,20.34
2023-04-29T17:17:51.815Z,20.32
2023-04-29T17:20:21.706Z,20.29
2023-04-29T17:22:50.094Z,20.23
2023-04-29T17:25:23.554Z,20.18
2023-04-29T17:27:51.977Z,20.14
2023-04-29T17:30:20.432Z,20.09
2023-04-29T17:32:49.968Z,20.00
2023-04-29T17:35:18.567Z,19.98
2023-04-29T17:37:47.912Z,19.94
2023-04-29T17:40:16.383Z,19.90
2023-04-29T17:42:46.168Z,19.88
2023-04-29T17:45:17.859Z,19.87
2023-04-29T17:47:46.897Z,19.84
2023-04-29T17:50:15.631Z,19.78
2023-04-29T17:52:44.414Z,19.75
2023-04-29T17:55:14.246Z,19.73
2023-04-29T17:57:42.749Z,19.69
2023-04-29T18:00:14.445Z,19.67
2023-04-29T18:02:42.960Z,19.60
2023-04-29T18:05:14.312Z,19.56
2023-04-29T18:07:42.770Z,19.54
2023-04-29T18:10:11.624Z,19.49
2023-04-29T18:12:40.636Z,19.45
2023-04-29T18:15:16.660Z,19.38
2023-04-29T18:17:45.443Z,19.35
2023-04-29T18:20:14.879Z,19.29
2023-04-29T18:22:43.851Z,19.26
2023-04-29T18:25:15.070Z,19.22
2023-04-29T18:27:43.582Z,19.14
2023-04-29T18:30:14.626Z,19.09
2023-04-29T18:32:43.165Z,19.04
2023-04-29T18:35:11.983Z,18.97
2023-04-29T18:37:40.505Z,18.94
2023-04-29T18:40:10.749Z,18.89
2023-04-29T18:42:39.310Z,18.86
2023-04-29T18:45:12.289Z,18.82
2023-04-29T18:47:42.198Z,18.75
2023-04-29T18:50:10.943Z,18.73
2023-04-29T18:52:39.428Z,18.72
2023-04-29T18:55:08.904Z,18.66
2023-04-29T18:57:37.623Z,18.62
2023-04-29T19:00:07.364Z,18.58
2023-04-29T19:02:37.340Z,18.53
2023-04-29T19:05:12.820Z,18.50
2023-04-29T19:07:41.375Z,18.48
2023-04-29T19:10:10.749Z,18.46
2023-04-29T19:12:39.517Z,18.41
2023-04-29T19:15:15.403Z,18.37
2023-04-29T19:17:44.125Z,18.35
2023-04-29T19:20:14.721Z,18.31
2023-04-29T19:22:43.197Z,18.28
2023-04-29T19:25:12.127Z,18.26
2023-04-29T19:27:45.073Z,18.20
2023-04-29T19:30:14.487Z,18.17
2023-04-29T19:32:43.245Z,18.14
2023-04-29T19:35:16.926Z,18.09
2023-04-29T19:37:45.612Z,18.06
2023-04-29T19:40:14.338Z,18.03
2023-04-29T19:42:42.885Z,17.97
2023-04-29T19:45:12.975Z,17.96
2023-04-29T19:47:41.591Z,17.92
2023-04-29T19:50:11.056Z,17.89
2023-04-29T19:52:41.228Z,17.87
2023-04-29T19:55:14.515Z,17.83
2023-04-29T19:57:43.007Z,17.81
2023-04-29T20:00:14.644Z,17.76
2023-04-29T20:02:43.410Z,17.73
2023-04-29T20:05:13.704Z,17.67
2023-04-29T20:07:43.743Z,17.63
2023-04-29T20:10:13.085Z,17.59
2023-04-29T20:12:41.792Z,17.53
2023-04-29T20:15:11.621Z,17.48
2023-04-29T20:17:40.519Z,17.45
2023-04-29T20:20:15.511Z,17.41
2023-04-29T20:22:45.616Z,17.35
2023-04-29T20:25:14.395Z,17.33
2023-04-29T20:27:43.012Z,17.28
2023-04-29T20:30:12.146Z,17.27
2023-04-29T20:32:40.860Z,17.25
2023-04-29T20:35:09.563Z,17.24
2023-04-29T20:37:38.320Z,17.21
2023-04-29T20:40:13.168Z,17.19
2023-04-29T20:42:41.898Z,17.15
2023-04-29T20:45:11.763Z,17.10
2023-04-29T20:47:40.234Z,17.06
2023-04-29T20:50:15.127Z,17.04
2023-04-29T20:52:43.596Z,16.99
2023-04-29T20:55:16.547Z,16.97
2023-04-29T20:57:44.961Z,16.95
2023-04-29T21:00:14.377Z,16.95
2023-04-29T21:02:42.739Z,16.91
2023-04-29T21:05:16.318Z,16.90
2023-04-29T21:07:44.692Z,16.87
2023-04-29T21:10:15.397Z,16.84
2023-04-29T21:12:43.709Z,16.82
2023-04-29T21:15:15.408Z,16.80
2023-04-29T21:17:43.713Z,16.79
2023-04-29T21:20:13.304Z,16.78
2023-04-29T21:22:41.698Z,16.76
2023-04-29T21:25:12.778Z,16.74
2023-04-29T21:27:42.567Z,16.71
2023-04-29T21:30:17.046Z,16.69
2023-04-29T21:32:45.386Z,16.66
2023-04-29T21:35:13.874Z,16.62
2023-04-29T21:37:42.185Z,16.61
2023-04-29T21:40:14.554Z,16.58
2023-04-29T21:42:45.442Z,16.54
2023-04-29T21:45:16.132Z,16.50
2023-04-29T21:47:45.000Z,16.48
2023-04-29T21:50:13.598Z,16.45
2023-04-29T21:52:42.086Z,16.42
2023-04-29T21:55:11.452Z,16.40
2023-04-29T21:57:44.124Z,16.37
2023-04-29T22:00:30.786Z,16.37
2023-04-29T22:03:01.891Z,16.33
2023-04-29T22:05:30.605Z,16.30
2023-04-29T22:08:00.652Z,16.27
2023-04-29T22:10:29.162Z,16.24
2023-04-29T22:12:57.836Z,16.21
2023-04-29T22:15:29.205Z,16.18
2023-04-29T22:17:58.401Z,16.14
2023-04-29T22:20:27.486Z,16.12
2023-04-29T22:22:56.069Z,16.10
2023-04-29T22:25:24.539Z,16.05
2023-04-29T22:27:52.955Z,16.01
2023-04-29T22:30:24.717Z,15.98
2023-04-29T22:32:55.077Z,15.90
2023-04-29T22:35:23.494Z,15.83
2023-04-29T22:37:51.910Z,15.77
2023-04-29T22:40:23.133Z,15.71
2023-04-29T22:42:51.488Z,15.65
2023-04-29T22:45:19.821Z,15.62
2023-04-29T22:47:48.151Z,15.57
2023-04-29T22:50:18.141Z,15.52
2023-04-29T22:52:46.505Z,15.49
2023-04-29T22:55:14.815Z,15.46
2023-04-29T22:57:43.148Z,15.45
2023-04-29T23:00:15.868Z,15.43
2023-04-29T23:02:44.314Z,15.41
2023-04-29T23:05:12.687Z,15.40
2023-04-29T23:07:42.413Z,15.38
2023-04-29T23:10:17.520Z,15.38
2023-04-29T23:12:45.957Z,15.34
2023-04-29T23:15:14.335Z,15.34
2023-04-29T23:17:42.671Z,15.33
2023-04-29T23:20:13.127Z,15.32
2023-04-29T23:22:42.850Z,15.31
2023-04-29T23:25:16.974Z,15.32
2023-04-29T23:27:45.338Z,15.32
2023-04-29T23:30:13.882Z,15.31
2023-04-29T23:32:42.182Z,15.31
2023-04-29T23:35:13.198Z,15.30
2023-04-29T23:37:42.959Z,15.29
2023-04-29T23:40:12.313Z,15.31
2023-04-29T23:42:40.610Z,15.29
2023-04-29T23:45:13.320Z,15.30
2023-04-29T23:47:41.609Z,15.31
2023-04-29T23:50:10.956Z,15.30
2023-04-29T23:52:39.380Z,15.30
2023-04-29T23:55:15.375Z,15.29
2023-04-29T23:57:43.643Z,15.28
